Time;durP1;ratioP1;P1;durP2;ratioP2;P2;SDS_P1;SDS_P2;PMS_P1;PMS_P2;Temp;Humidity;BMP_temperature;BMP_pressure;BME280_temperature;BME280_humidity;BME280_pressure;Samples;Min_cycle;Max_cycle;Signal;HPM_P1;HPM_P2
2022/04/16 00:01:15;;;;;;;3.35;1.58;;;10.70;95.80;;;;;;5033203;28;20182;-67
2022/04/16 00:03:41;;;;;;;4.30;1.50;;;10.70;95.80;;;;;;5032661;28;20190;-67
2022/04/16 00:06:07;;;;;;;1.67;1.58;;;10.70;95.90;;;;;;5034165;28;20240;-69
2022/04/16 00:08:32;;;;;;;1.07;1.03;;;10.60;95.90;;;;;;5034096;28;20625;-69
2022/04/16 00:10:59;;;;;;;1.13;1.07;;;10.60;95.90;;;;;;5033794;28;20201;-68
2022/04/16 00:13:25;;;;;;;1.30;1.13;;;10.60;95.80;;;;;;5032747;28;20166;-67
2022/04/16 00:15:52;;;;;;;1.20;1.20;;;10.60;95.80;;;;;;5033966;28;20190;-68
2022/04/16 00:18:19;;;;;;;1.33;1.23;;;10.50;95.70;;;;;;5034177;28;20166;-69
2022/04/16 00:20:47;;;;;;;1.10;1.00;;;10.50;95.80;;;;;;5034159;28;20189;-68
2022/04/16 00:23:12;;;;;;;1.35;1.35;;;10.60;95.80;;;;;;5033552;28;20200;-70
2022/04/16 00:25:38;;;;;;;1.00;1.00;;;10.50;95.80;;;;;;5034026;28;20229;-71
2022/04/16 00:28:04;;;;;;;0.90;0.90;;;10.50;95.80;;;;;;5033857;28;20177;-69
2022/04/16 00:30:37;;;;;;;0.68;0.52;;;10.50;95.70;;;;;;5033815;28;20190;-68
2022/04/16 00:33:03;;;;;;;1.13;1.13;;;10.40;95.80;;;;;;5033739;28;20176;-69
2022/04/16 00:35:29;;;;;;;0.88;0.88;;;10.40;95.80;;;;;;5033574;28;20186;-69
2022/04/16 00:37:55;;;;;;;1.20;0.70;;;10.40;95.80;;;;;;5033436;28;20233;-66
2022/04/16 00:40:21;;;;;;;0.63;0.63;;;10.40;95.90;;;;;;5033727;28;20400;-70
2022/04/16 00:42:47;;;;;;;1.20;1.10;;;10.40;96.00;;;;;;5033791;28;20170;-70
2022/04/16 00:45:13;;;;;;;1.57;1.47;;;10.30;96.10;;;;;;5033357;28;20797;-69
2022/04/16 00:47:39;;;;;;;1.00;0.93;;;10.30;96.00;;;;;;5033744;28;20181;-69
2022/04/16 00:50:08;;;;;;;1.95;1.17;;;10.20;96.10;;;;;;5033407;28;20202;-69
2022/04/16 00:52:38;;;;;;;1.75;1.38;;;10.10;96.30;;;;;;5033248;28;20224;-68
2022/04/16 00:55:06;;;;;;;1.10;1.10;;;10.10;96.50;;;;;;5033157;28;20182;-67
2022/04/16 00:57:32;;;;;;;0.82;0.82;;;10.00;96.50;;;;;;5033334;28;20162;-68
2022/04/16 01:00:00;;;;;;;0.95;0.95;;;10.00;96.70;;;;;;5033325;28;20261;-69
2022/04/16 01:02:26;;;;;;;1.08;0.95;;;9.90;97.60;;;;;;5032795;28;20699;-67
2022/04/16 01:04:52;;;;;;;1.03;0.93;;;9.80;97.60;;;;;;5032888;28;20285;-68
2022/04/16 01:07:25;;;;;;;1.08;1.02;;;9.80;97.60;;;;;;5033343;28;20480;-68
2022/04/16 01:09:51;;;;;;;1.13;1.02;;;9.70;97.80;;;;;;5033279;28;20201;-67
2022/04/16 01:12:17;;;;;;;2.07;1.57;;;9.70;98.20;;;;;;5033349;28;20168;-67
2022/04/16 01:14:43;;;;;;;1.30;1.20;;;9.60;98.40;;;;;;5032314;28;20393;-69
2022/04/16 01:17:09;;;;;;;0.93;0.93;;;9.60;98.60;;;;;;5032212;28;20231;-68
2022/04/16 01:19:38;;;;;;;1.52;1.42;;;9.50;98.90;;;;;;5033217;28;20579;-69
2022/04/16 01:22:07;;;;;;;1.30;1.30;;;9.40;98.90;;;;;;5033216;28;20166;-68
2022/04/16 01:24:34;;;;;;;1.00;1.00;;;9.40;99.20;;;;;;5032360;28;20243;-67
2022/04/16 01:27:00;;;;;;;1.20;1.10;;;9.30;99.60;;;;;;5032614;28;20166;-69
2022/04/16 01:29:26;;;;;;;1.77;1.55;;;9.20;99.90;;;;;;5033194;28;20451;-68
2022/04/16 01:31:53;;;;;;;1.67;1.40;;;9.20;99.90;;;;;;5033162;28;20273;-68
2022/04/16 01:34:19;;;;;;;1.02;1.00;;;9.20;99.90;;;;;;5032762;28;20447;-67
2022/04/16 01:36:46;;;;;;;1.98;1.70;;;9.10;99.90;;;;;;5033164;28;20222;-68
2022/04/16 01:39:12;;;;;;;1.25;1.25;;;9.00;99.90;;;;;;5033143;28;20533;-68
2022/04/16 01:41:37;;;;;;;1.17;1.17;;;9.00;99.90;;;;;;5032936;28;20176;-68
2022/04/16 01:44:03;;;;;;;1.20;1.10;;;9.00;99.90;;;;;;5032633;28;20414;-68
2022/04/16 01:46:29;;;;;;;2.17;1.50;;;9.00;99.90;;;;;;5033132;28;20193;-68
2022/04/16 01:48:56;;;;;;;1.10;0.97;;;8.90;99.90;;;;;;5033526;28;20455;-69
2022/04/16 01:51:22;;;;;;;1.10;1.10;;;8.90;99.90;;;;;;5032980;28;20953;-69
2022/04/16 01:53:48;;;;;;;1.17;1.08;;;8.90;99.90;;;;;;5032802;28;20217;-68
2022/04/16 01:56:14;;;;;;;1.10;1.10;;;8.90;99.90;;;;;;5032959;28;20198;-66
2022/04/16 01:58:41;;;;;;;1.47;1.40;;;8.90;99.90;;;;;;5033416;28;20491;-69
2022/04/16 02:01:08;;;;;;;1.08;1.08;;;8.90;99.90;;;;;;5033025;28;20184;-67
2022/04/16 02:03:34;;;;;;;1.63;1.48;;;8.80;99.90;;;;;;5032405;28;20319;-68
2022/04/16 02:06:00;;;;;;;1.48;1.38;;;8.80;99.90;;;;;;5031645;28;20198;-68
2022/04/16 02:08:26;;;;;;;2.00;1.80;;;8.70;99.90;;;;;;5032882;28;20250;-67
2022/04/16 02:10:52;;;;;;;1.35;1.35;;;8.70;99.90;;;;;;5032991;28;20559;-67
2022/04/16 02:13:17;;;;;;;1.40;1.30;;;8.70;99.90;;;;;;5032694;28;20180;-69
2022/04/16 02:15:43;;;;;;;1.40;1.30;;;8.60;99.90;;;;;;5031506;28;20193;-68
2022/04/16 02:18:08;;;;;;;1.53;1.37;;;8.60;99.90;;;;;;5033669;28;20184;-72
2022/04/16 02:20:36;;;;;;;1.70;1.60;;;8.60;99.90;;;;;;5034208;28;20170;-70
2022/04/16 02:23:03;;;;;;;1.40;1.30;;;8.50;99.90;;;;;;5032761;28;20173;-69
2022/04/16 02:25:31;;;;;;;1.10;1.10;;;8.50;99.90;;;;;;5032325;28;20196;-68
2022/04/16 02:27:57;;;;;;;1.73;1.63;;;8.50;99.90;;;;;;5032449;28;20261;-68
2022/04/16 02:30:22;;;;;;;1.53;1.33;;;8.40;99.90;;;;;;5032518;28;20730;-69
2022/04/16 02:32:53;;;;;;;2.80;2.17;;;8.30;99.90;;;;;;5032264;28;20774;-68
2022/04/16 02:35:19;;;;;;;1.02;1.00;;;8.30;99.90;;;;;;5032418;28;20576;-68
2022/04/16 02:37:45;;;;;;;1.43;1.33;;;8.20;99.90;;;;;;5036168;28;20182;-68
2022/04/16 02:40:11;;;;;;;1.63;1.52;;;8.10;99.90;;;;;;5035449;28;20196;-68
2022/04/16 02:42:39;;;;;;;2.00;1.35;;;8.10;99.90;;;;;;5035907;28;20177;-69
2022/04/16 02:47:52;;;;;;;1.50;1.40;;;8.00;99.90;;;;;;5036210;28;20187;-68
2022/04/16 02:50:18;;;;;;;1.27;1.20;;;7.90;99.90;;;;;;5035676;28;20192;-67
2022/04/16 02:52:46;;;;;;;2.50;2.30;;;7.90;99.90;;;;;;5035743;28;20534;-68
2022/04/16 02:55:15;;;;;;;1.50;1.40;;;7.80;99.90;;;;;;5035069;28;20820;-68
2022/04/16 02:57:44;;;;;;;2.95;1.40;;;7.70;99.90;;;;;;5035673;28;20166;-67
2022/04/16 03:00:11;;;;;;;1.90;1.63;;;7.70;99.90;;;;;;5035642;28;20173;-68
2022/04/16 03:02:37;;;;;;;1.45;1.35;;;7.70;99.90;;;;;;5035483;28;20172;-67
2022/04/16 03:05:06;;;;;;;1.70;1.60;;;7.70;99.90;;;;;;5035529;28;20236;-68
2022/04/16 03:07:32;;;;;;;1.73;1.60;;;7.70;99.90;;;;;;5035639;28;20565;-68
2022/04/16 03:09:58;;;;;;;2.13;1.92;;;7.70;99.90;;;;;;5035194;28;20205;-68
2022/04/16 03:12:24;;;;;;;1.67;1.50;;;7.70;99.90;;;;;;5035437;28;20175;-69
2022/04/16 03:17:34;;;;;;;4.00;1.33;;;7.80;99.90;;;;;;5035503;28;20196;-68
2022/04/16 03:20:04;;;;;;;1.50;1.35;;;7.80;99.90;;;;;;5035213;28;20171;-67
2022/04/16 03:22:32;;;;;;;2.40;2.20;;;7.90;99.90;;;;;;5035657;28;20518;-68
2022/04/16 03:24:58;;;;;;;1.23;1.13;;;8.00;99.90;;;;;;5033274;28;20199;-67
2022/04/16 03:27:24;;;;;;;1.35;1.25;;;8.00;99.90;;;;;;5035259;28;20200;-68
2022/04/16 03:29:49;;;;;;;1.10;1.10;;;8.10;99.90;;;;;;5035155;28;20194;-67
2022/04/16 03:32:15;;;;;;;2.27;1.53;;;8.10;99.90;;;;;;5034953;28;20256;-68
2022/04/16 03:34:41;;;;;;;1.30;1.20;;;8.10;99.90;;;;;;5034500;28;20248;-69
2022/04/16 03:37:06;;;;;;;1.90;1.80;;;8.10;99.90;;;;;;5034933;28;20702;-68
2022/04/16 03:39:32;;;;;;;2.27;2.17;;;8.10;99.90;;;;;;5034812;28;20178;-69
2022/04/16 03:41:58;;;;;;;1.70;1.60;;;8.10;99.90;;;;;;5034904;28;20170;-68
2022/04/16 03:44:23;;;;;;;2.30;1.60;;;8.20;99.90;;;;;;5034563;28;20200;-68
2022/04/16 03:46:49;;;;;;;1.87;1.77;;;8.20;99.90;;;;;;5034238;28;20223;-69
2022/04/16 03:49:14;;;;;;;1.60;1.50;;;8.10;99.90;;;;;;5034677;28;20620;-68
2022/04/16 03:51:41;;;;;;;2.33;2.10;;;8.10;99.90;;;;;;5034629;28;20208;-66
2022/04/16 04:02:19;;;;;;;1.58;1.48;;;7.90;99.90;;;;;;5030462;28;20180;-69
2022/04/16 04:04:46;;;;;;;4.00;1.63;;;7.70;99.90;;;;;;5033799;28;20188;-68
2022/04/16 04:07:12;;;;;;;2.63;2.42;;;7.70;99.90;;;;;;5034381;28;20172;-68
2022/04/16 04:09:38;;;;;;;1.90;1.80;;;7.60;99.90;;;;;;5034181;28;20220;-69
2022/04/16 04:12:12;;;;;;;2.50;2.40;;;7.60;99.90;;;;;;5034379;28;20511;-68
2022/04/16 04:14:43;;;;;;;1.90;1.50;;;7.60;99.90;;;;;;5034052;28;20180;-69
2022/04/16 04:17:09;;;;;;;1.85;1.75;;;7.50;99.90;;;;;;5033987;28;20174;-68
2022/04/16 04:19:40;;;;;;;1.88;1.77;;;7.50;99.90;;;;;;5020404;28;20512;-69
2022/04/16 04:22:08;;;;;;;2.08;1.98;;;7.50;99.90;;;;;;5014427;28;20169;-68
2022/04/16 04:24:35;;;;;;;1.70;1.60;;;7.50;99.90;;;;;;5049287;28;20288;-68
2022/04/16 04:27:01;;;;;;;1.92;1.50;;;7.50;99.90;;;;;;5054291;28;20226;-70
2022/04/16 04:29:27;;;;;;;2.07;1.87;;;7.40;99.90;;;;;;5053974;28;20197;-68
2022/04/16 04:31:54;;;;;;;2.33;2.15;;;7.40;99.90;;;;;;5035801;28;20463;-68
2022/04/16 04:34:20;;;;;;;2.60;1.90;;;7.40;99.90;;;;;;5033580;28;20311;-68
2022/04/16 04:36:46;;;;;;;2.45;2.00;;;7.40;99.90;;;;;;5033529;28;20234;-68
2022/04/16 04:39:15;;;;;;;2.45;2.25;;;7.40;99.90;;;;;;5033971;28;20206;-69
2022/04/16 04:41:43;;;;;;;1.42;1.33;;;7.30;99.90;;;;;;5033804;28;20570;-67
2022/04/16 04:44:15;;;;;;;2.30;2.20;;;7.40;99.90;;;;;;5032863;28;20172;-68
2022/04/16 04:46:42;;;;;;;1.98;1.77;;;7.40;99.90;;;;;;5033020;28;20208;-68
2022/04/16 04:49:08;;;;;;;2.40;2.10;;;7.50;99.90;;;;;;5033739;28;20188;-68
2022/04/16 04:51:38;;;;;;;1.80;1.67;;;7.40;99.90;;;;;;5033088;28;20701;-68
2022/04/16 04:54:05;;;;;;;1.80;1.70;;;7.50;99.90;;;;;;5032622;28;20598;-68
2022/04/16 04:56:30;;;;;;;2.10;2.00;;;7.50;99.90;;;;;;5033521;28;20221;-68
2022/04/16 04:58:56;;;;;;;2.37;2.17;;;7.50;99.90;;;;;;5032498;28;20198;-67
2022/04/16 05:01:22;;;;;;;2.33;2.10;;;7.60;99.90;;;;;;5032689;28;20178;-68
2022/04/16 05:03:48;;;;;;;1.60;1.50;;;7.60;99.90;;;;;;5032714;28;20269;-69
2022/04/16 05:06:14;;;;;;;1.37;1.27;;;7.70;99.90;;;;;;5033247;28;20294;-68
2022/04/16 05:08:39;;;;;;;1.97;1.87;;;7.70;99.90;;;;;;5032964;28;20185;-68
2022/04/16 05:11:05;;;;;;;2.43;2.23;;;7.90;99.90;;;;;;5033177;28;20612;-68
2022/04/16 05:13:31;;;;;;;1.80;1.30;;;7.90;99.90;;;;;;5031928;28;20205;-67
2022/04/16 05:15:57;;;;;;;2.33;2.23;;;7.90;99.90;;;;;;5031616;28;20827;-68
2022/04/16 05:18:22;;;;;;;2.70;2.30;;;8.00;99.90;;;;;;5032668;28;20203;-68
2022/04/16 05:20:48;;;;;;;1.97;1.87;;;8.00;99.90;;;;;;5032932;28;20177;-67
2022/04/16 05:23:13;;;;;;;2.13;2.00;;;8.10;99.90;;;;;;5030471;28;20189;-67
2022/04/16 05:25:39;;;;;;;2.07;1.80;;;8.20;99.90;;;;;;5015885;28;20292;-68
2022/04/16 05:28:05;;;;;;;1.90;1.80;;;8.30;99.90;;;;;;5032373;28;20732;-68
2022/04/16 05:30:34;;;;;;;2.40;2.13;;;8.30;99.90;;;;;;5028862;28;20189;-67
2022/04/16 05:33:05;;;;;;;2.05;1.95;;;8.40;99.90;;;;;;5032626;28;20681;-68
2022/04/16 05:35:31;;;;;;;1.92;1.83;;;8.30;99.90;;;;;;5033186;28;20196;-68
2022/04/16 05:37:59;;;;;;;2.47;2.28;;;8.30;99.90;;;;;;5032639;28;20192;-67
2022/04/16 05:40:25;;;;;;;1.85;1.75;;;8.30;99.90;;;;;;5033016;28;20249;-66
2022/04/16 05:42:50;;;;;;;1.77;1.67;;;8.40;99.90;;;;;;5032694;28;20174;-71
2022/04/16 05:45:16;;;;;;;2.10;2.00;;;8.40;99.90;;;;;;5032432;28;20440;-69
2022/04/16 05:47:43;;;;;;;2.50;2.30;;;8.40;99.90;;;;;;5032337;28;20189;-69
2022/04/16 05:50:10;;;;;;;2.00;1.90;;;8.50;99.90;;;;;;5032046;28;20201;-70
2022/04/16 05:52:36;;;;;;;1.75;1.65;;;8.50;99.90;;;;;;5032734;28;20217;-68
2022/04/16 05:55:02;;;;;;;1.63;1.52;;;8.60;99.90;;;;;;5032432;28;20562;-68
2022/04/16 05:57:30;;;;;;;2.15;1.90;;;8.50;99.90;;;;;;5032868;28;20559;-68
2022/04/16 05:59:56;;;;;;;1.02;1.00;;;8.60;99.90;;;;;;5031548;28;20182;-68
2022/04/16 06:02:22;;;;;;;2.00;1.80;;;8.60;99.90;;;;;;5032515;28;20544;-66
2022/04/16 06:04:48;;;;;;;2.13;2.03;;;8.60;99.90;;;;;;5032177;28;20421;-69
2022/04/16 06:07:14;;;;;;;2.03;1.93;;;8.70;99.90;;;;;;5032711;28;20178;-66
2022/04/16 06:09:40;;;;;;;1.70;1.60;;;8.70;99.90;;;;;;5033420;28;20260;-69
2022/04/16 06:12:06;;;;;;;2.43;2.20;;;8.70;99.90;;;;;;5036194;28;20260;-72
2022/04/16 06:14:32;;;;;;;1.97;1.77;;;8.80;99.90;;;;;;5035672;28;20676;-70
2022/04/16 06:16:57;;;;;;;2.27;2.07;;;8.80;99.90;;;;;;5036144;28;20416;-66
2022/04/16 06:19:23;;;;;;;1.60;1.50;;;8.80;99.90;;;;;;5036418;28;20162;-68
2022/04/16 06:21:50;;;;;;;1.60;1.50;;;8.90;99.90;;;;;;5035644;28;20435;-67
2022/04/16 06:24:15;;;;;;;1.75;1.65;;;8.90;99.90;;;;;;5033828;28;20177;-69
2022/04/16 06:26:42;;;;;;;2.40;2.20;;;9.00;99.90;;;;;;5036145;28;20212;-66
2022/04/16 06:29:08;;;;;;;2.40;2.20;;;9.10;99.90;;;;;;5036410;28;20167;-66
2022/04/16 06:31:34;;;;;;;2.35;2.15;;;9.10;99.90;;;;;;5035668;28;20856;-67
2022/04/16 06:34:00;;;;;;;2.60;2.33;;;9.10;99.90;;;;;;5033984;28;20253;-67
2022/04/16 06:36:25;;;;;;;1.50;1.40;;;9.10;99.90;;;;;;5035831;28;20182;-67
2022/04/16 06:38:51;;;;;;;1.83;1.73;;;9.10;99.90;;;;;;5036121;28;20174;-66
2022/04/16 06:41:16;;;;;;;1.80;1.70;;;9.10;99.90;;;;;;5035958;28;20645;-67
2022/04/16 06:43:42;;;;;;;2.17;1.47;;;9.20;99.90;;;;;;5035718;28;20576;-68
2022/04/16 06:46:08;;;;;;;2.70;2.50;;;9.30;99.90;;;;;;5035377;28;20198;-68
2022/04/16 06:48:33;;;;;;;2.30;1.50;;;9.40;99.90;;;;;;5035835;28;20521;-69
2022/04/16 06:50:59;;;;;;;3.33;2.13;;;9.50;99.90;;;;;;5035106;28;20877;-69
2022/04/16 06:53:28;;;;;;;2.50;1.90;;;9.60;99.90;;;;;;5033703;28;20182;-70
2022/04/16 06:55:54;;;;;;;3.30;2.00;;;9.70;99.90;;;;;;5035371;28;20252;-69
2022/04/16 06:58:19;;;;;;;2.80;2.67;;;9.80;99.90;;;;;;5035581;28;20517;-69
2022/04/16 07:00:45;;;;;;;3.27;2.13;;;9.90;99.90;;;;;;5035206;28;20265;-66
2022/04/16 07:03:11;;;;;;;3.13;2.83;;;10.00;99.90;;;;;;5035028;28;20186;-68
2022/04/16 07:05:36;;;;;;;3.90;2.30;;;10.10;99.90;;;;;;5035148;28;20194;-66
2022/04/16 07:08:02;;;;;;;1.77;1.67;;;10.20;99.90;;;;;;5035718;28;20166;-68
2022/04/16 07:10:29;;;;;;;2.33;2.23;;;10.30;99.90;;;;;;5035037;28;20277;-66
2022/04/16 07:12:54;;;;;;;2.20;1.85;;;10.30;99.90;;;;;;5035125;28;20180;-69
2022/04/16 07:15:20;;;;;;;1.70;1.60;;;10.40;99.90;;;;;;5034570;28;20281;-69
2022/04/16 07:17:46;;;;;;;2.80;2.40;;;10.50;99.90;;;;;;5034480;28;20401;-68
2022/04/16 07:20:11;;;;;;;2.57;2.37;;;10.50;99.90;;;;;;5026624;28;20179;-68
2022/04/16 07:22:37;;;;;;;5.20;2.70;;;10.60;99.90;;;;;;5034352;28;20187;-66
2022/04/16 07:25:05;;;;;;;5.90;2.57;;;10.70;99.90;;;;;;5034529;28;20665;-67
2022/04/16 07:27:32;;;;;;;2.22;2.13;;;10.80;99.90;;;;;;5035186;28;20433;-66
2022/04/16 07:29:58;;;;;;;3.40;1.98;;;10.80;99.90;;;;;;5034681;28;20198;-66
2022/04/16 07:32:28;;;;;;;1.67;1.58;;;10.90;99.90;;;;;;5035132;28;20241;-67
2022/04/16 07:34:53;;;;;;;3.08;2.53;;;11.00;99.90;;;;;;5034131;28;20194;-67
2022/04/16 07:37:19;;;;;;;2.27;2.13;;;11.10;99.90;;;;;;5034955;28;20282;-66
2022/04/16 07:39:45;;;;;;;3.13;2.83;;;11.20;99.90;;;;;;5034703;28;20182;-69
2022/04/16 07:42:10;;;;;;;3.30;3.03;;;11.30;99.90;;;;;;5034866;28;20167;-70
2022/04/16 07:44:36;;;;;;;3.53;2.73;;;11.40;99.90;;;;;;5034092;28;20171;-67
2022/04/16 07:47:02;;;;;;;3.30;3.00;;;11.50;99.90;;;;;;5034683;28;20163;-69
2022/04/16 07:49:28;;;;;;;2.80;2.47;;;11.50;99.90;;;;;;5033784;28;20912;-68
2022/04/16 07:51:53;;;;;;;4.77;2.90;;;11.40;99.90;;;;;;5032525;28;20488;-69
2022/04/16 07:54:19;;;;;;;5.33;3.53;;;11.40;99.90;;;;;;5032076;28;20236;-68
2022/04/16 07:56:45;;;;;;;4.30;3.13;;;11.30;99.90;;;;;;5032395;28;20588;-69
2022/04/16 07:59:11;;;;;;;3.90;3.57;;;11.30;99.90;;;;;;5032854;28;20166;-67
2022/04/16 08:01:37;;;;;;;5.60;3.05;;;11.20;99.90;;;;;;5033982;28;20220;-71
2022/04/16 08:04:03;;;;;;;5.20;3.20;;;11.10;99.90;;;;;;5033998;28;20193;-71
2022/04/16 08:06:29;;;;;;;3.85;2.75;;;11.10;99.90;;;;;;5032353;28;20225;-71
2022/04/16 08:09:00;;;;;;;2.83;2.63;;;11.20;99.90;;;;;;5033467;28;20171;-70
2022/04/16 08:11:32;;;;;;;5.63;3.47;;;11.20;99.90;;;;;;5032601;28;20270;-70
2022/04/16 08:13:59;;;;;;;4.03;3.53;;;11.30;99.90;;;;;;5031559;28;20174;-70
2022/04/16 08:16:25;;;;;;;3.40;2.72;;;11.40;99.90;;;;;;5032987;28;20214;-70
2022/04/16 08:18:51;;;;;;;6.37;3.70;;;11.50;99.90;;;;;;5033672;28;20171;-71
2022/04/16 08:21:20;;;;;;;3.70;2.80;;;11.60;99.90;;;;;;5064482;28;20780;-72
2022/04/16 08:23:55;;;;;;;4.82;3.13;;;11.70;99.90;;;;;;5032836;28;20169;-71
2022/04/16 08:26:23;;;;;;;2.45;2.05;;;11.70;99.90;;;;;;5032103;28;20292;-72
2022/04/16 08:28:48;;;;;;;3.30;2.88;;;11.70;99.90;;;;;;5032657;28;20545;-72
2022/04/16 08:31:14;;;;;;;4.23;3.67;;;11.60;99.90;;;;;;5032753;28;20201;-70
2022/04/16 08:33:40;;;;;;;4.17;3.47;;;11.60;99.90;;;;;;5031027;28;20443;-70
2022/04/16 08:36:05;;;;;;;2.50;2.30;;;11.60;99.90;;;;;;5032258;28;20572;-71
2022/04/16 08:38:31;;;;;;;5.20;4.20;;;11.60;99.90;;;;;;5032106;28;20171;-70
2022/04/16 08:40:57;;;;;;;4.70;4.10;;;11.60;99.90;;;;;;5032230;28;20181;-72
2022/04/16 08:43:22;;;;;;;3.80;3.10;;;11.70;99.90;;;;;;5031687;28;20198;-70
2022/04/16 08:45:50;;;;;;;3.57;3.23;;;11.70;99.90;;;;;;5032269;28;20421;-71
2022/04/16 08:48:16;;;;;;;4.40;3.50;;;11.80;99.90;;;;;;5033711;28;20167;-70
2022/04/16 08:50:43;;;;;;;3.00;2.70;;;11.70;99.90;;;;;;5033428;28;20189;-69
2022/04/16 08:53:09;;;;;;;9.77;3.60;;;11.80;99.90;;;;;;5032782;28;20178;-70
2022/04/16 08:55:37;;;;;;;6.72;3.30;;;11.80;99.90;;;;;;5033559;28;20221;-70
2022/04/16 08:58:03;;;;;;;7.47;3.97;;;11.90;99.90;;;;;;5033680;28;20194;-71
2022/04/16 09:00:29;;;;;;;5.13;3.65;;;11.80;99.90;;;;;;5033616;28;20202;-69
2022/04/16 09:03:00;;;;;;;5.33;3.93;;;11.70;99.90;;;;;;5033232;28;20237;-69
2022/04/16 09:05:27;;;;;;;7.22;4.43;;;11.60;99.90;;;;;;5033183;28;20221;-69
2022/04/16 09:07:56;;;;;;;8.52;4.32;;;11.60;99.90;;;;;;5033037;28;20210;-68
2022/04/16 09:10:25;;;;;;;3.72;3.42;;;11.60;99.90;;;;;;5031922;28;20198;-68
2022/04/16 09:12:53;;;;;;;5.80;3.88;;;11.60;99.90;;;;;;5033290;28;20171;-69
2022/04/16 09:15:19;;;;;;;4.00;3.45;;;11.60;99.90;;;;;;5032612;28;20222;-70
2022/04/16 09:18:00;;;;;;;4.20;3.55;;;11.60;99.90;;;;;;5032173;28;20660;-69
2022/04/16 09:20:43;;;;;;;4.47;3.80;;;11.50;99.90;;;;;;5033645;28;20170;-71
2022/04/16 09:23:20;;;;;;;3.60;3.30;;;11.50;99.90;;;;;;5031599;28;20177;-69
2022/04/16 09:25:47;;;;;;;4.07;3.50;;;11.40;99.90;;;;;;5032067;28;20197;-70
2022/04/16 09:28:18;;;;;;;4.45;3.35;;;11.40;99.90;;;;;;5034108;28;20178;-70
2022/04/16 09:30:55;;;;;;;5.25;4.05;;;11.30;99.90;;;;;;5033076;28;20318;-69
2022/04/16 09:33:22;;;;;;;3.67;3.10;;;11.30;99.90;;;;;;5033271;28;20192;-70
2022/04/16 09:35:54;;;;;;;4.68;3.70;;;11.40;99.90;;;;;;5032104;28;20221;-70
2022/04/16 09:38:20;;;;;;;3.53;3.20;;;11.50;99.90;;;;;;5033545;28;20170;-71
2022/04/16 09:40:47;;;;;;;5.23;4.57;;;11.70;99.90;;;;;;5033094;28;20185;-72
2022/04/16 09:43:13;;;;;;;4.13;3.25;;;11.90;99.90;;;;;;5032876;28;20416;-70
2022/04/16 09:45:40;;;;;;;5.47;4.37;;;12.10;99.90;;;;;;5035294;28;20662;-69
2022/04/16 09:48:11;;;;;;;3.90;3.33;;;12.20;99.60;;;;;;5037286;28;20414;-69
2022/04/16 09:50:38;;;;;;;4.80;3.10;;;12.50;99.30;;;;;;5035741;28;20204;-71
2022/04/16 09:53:06;;;;;;;5.43;3.20;;;12.80;98.50;;;;;;5037265;28;20412;-74
2022/04/16 09:55:31;;;;;;;3.57;3.27;;;13.10;98.30;;;;;;5036770;28;20428;-69
2022/04/16 09:58:02;;;;;;;5.80;3.80;;;13.30;97.50;;;;;;5037204;28;20424;-71
2022/04/16 10:00:29;;;;;;;2.70;2.50;;;13.40;96.90;;;;;;5036711;28;20645;-70
2022/04/16 10:02:55;;;;;;;3.30;3.10;;;13.50;96.90;;;;;;5036494;28;20510;-68
2022/04/16 10:05:22;;;;;;;3.37;3.03;;;13.80;96.60;;;;;;5036347;28;20726;-70
2022/04/16 10:07:49;;;;;;;3.37;3.07;;;14.00;96.00;;;;;;5036729;28;20810;-71
2022/04/16 10:10:17;;;;;;;4.60;3.50;;;14.30;95.20;;;;;;5036389;28;20555;-69
2022/04/16 10:12:59;;;;;;;3.90;3.50;;;14.30;94.70;;;;;;5036306;28;20466;-72
2022/04/16 10:15:48;;;;;;;4.13;3.30;;;14.10;94.60;;;;;;5036031;28;20478;-71
2022/04/16 10:18:14;;;;;;;3.60;3.40;;;14.00;94.60;;;;;;5034826;28;20776;-70
2022/04/16 10:20:59;;;;;;;3.77;3.40;;;13.80;94.20;;;;;;5036491;28;20412;-69
2022/04/16 10:23:29;;;;;;;4.30;3.50;;;13.70;94.80;;;;;;5036036;28;20429;-70
2022/04/16 10:26:21;;;;;;;3.43;3.03;;;13.70;95.10;;;;;;5036381;28;20466;-70
2022/04/16 10:28:54;;;;;;;3.10;2.70;;;13.90;94.80;;;;;;5035122;28;20443;-70
2022/04/16 10:31:27;;;;;;;4.70;4.07;;;14.10;93.90;;;;;;5036127;28;20464;-70
2022/04/16 10:33:59;;;;;;;3.70;3.17;;;14.30;93.70;;;;;;5035879;28;20409;-70
2022/04/16 10:36:52;;;;;;;3.27;2.97;;;14.40;93.80;;;;;;5036193;28;20505;-70
2022/04/16 10:39:19;;;;;;;3.43;3.20;;;14.50;93.70;;;;;;5036259;28;20913;-70
2022/04/16 10:41:59;;;;;;;2.70;2.50;;;14.40;93.50;;;;;;5036644;28;20499;-72
2022/04/16 10:44:26;;;;;;;3.27;2.70;;;14.40;92.90;;;;;;5035694;28;20405;-70
2022/04/16 10:46:54;;;;;;;2.63;2.47;;;14.40;92.30;;;;;;5034722;28;20927;-71
2022/04/16 10:49:24;;;;;;;3.43;2.63;;;14.40;92.70;;;;;;5036031;28;20405;-71
2022/04/16 10:51:52;;;;;;;3.43;3.13;;;15.00;92.40;;;;;;5035672;28;20960;-71
2022/04/16 10:54:32;;;;;;;2.60;2.40;;;15.80;91.20;;;;;;5035385;28;20488;-70
2022/04/16 10:56:58;;;;;;;2.87;2.63;;;16.60;88.70;;;;;;5035031;28;20486;-71
2022/04/16 10:59:40;;;;;;;2.10;2.00;;;16.70;86.30;;;;;;5035783;28;20415;-70
2022/04/16 11:02:23;;;;;;;3.77;3.10;;;16.30;84.00;;;;;;5035884;28;20440;-70
2022/04/16 11:05:03;;;;;;;3.13;2.70;;;16.00;85.80;;;;;;5035219;28;20521;-71
2022/04/16 11:07:30;;;;;;;3.03;2.70;;;15.70;87.10;;;;;;5035481;28;20408;-70
2022/04/16 11:09:57;;;;;;;2.33;2.13;;;15.50;86.10;;;;;;5035555;28;20464;-72
2022/04/16 11:12:23;;;;;;;3.23;2.67;;;15.60;85.20;;;;;;5035665;28;20425;-71
2022/04/16 11:14:50;;;;;;;2.20;1.90;;;15.50;85.00;;;;;;5034862;28;20421;-70
2022/04/16 11:17:15;;;;;;;3.53;3.23;;;15.40;87.30;;;;;;5035358;28;20451;-69
2022/04/16 11:19:44;;;;;;;3.80;2.50;;;15.40;87.70;;;;;;5035328;28;20785;-70
2022/04/16 11:22:10;;;;;;;2.77;2.40;;;15.30;88.00;;;;;;5035099;28;20526;-70
2022/04/16 11:24:35;;;;;;;2.20;2.00;;;15.20;87.40;;;;;;5034739;28;20405;-71
2022/04/16 11:35:14;;;;;;;2.97;2.70;;;15.20;87.30;;;;;;5034314;28;21050;-70
2022/04/16 11:37:40;;;;;;;3.63;3.33;;;15.20;85.00;;;;;;5034795;28;20505;-70
2022/04/16 11:40:08;;;;;;;4.50;2.67;;;15.20;85.10;;;;;;5034827;28;20170;-71
2022/04/16 11:42:34;;;;;;;5.70;2.93;;;15.20;85.20;;;;;;5034607;28;20795;-70
2022/04/16 11:45:00;;;;;;;3.13;2.80;;;15.20;83.30;;;;;;5032929;28;20455;-71
2022/04/16 11:47:32;;;;;;;2.33;2.13;;;15.10;83.90;;;;;;5034605;28;20405;-69
2022/04/16 11:50:05;;;;;;;2.97;2.77;;;14.90;83.70;;;;;;5034419;28;20413;-70
2022/04/16 11:52:32;;;;;;;2.73;2.43;;;14.80;85.10;;;;;;5034457;28;20435;-69
2022/04/16 11:55:03;;;;;;;3.20;2.90;;;14.70;84.10;;;;;;5034015;28;20442;-69
2022/04/16 11:57:29;;;;;;;3.30;2.40;;;14.70;83.20;;;;;;5034543;28;20404;-70
2022/04/16 12:00:08;;;;;;;3.70;3.40;;;14.90;83.70;;;;;;5034334;28;20397;-69
2022/04/16 12:02:36;;;;;;;2.70;2.10;;;15.00;83.30;;;;;;5032911;28;20178;-70
2022/04/16 12:05:13;;;;;;;2.03;1.83;;;15.00;82.50;;;;;;5033703;28;20439;-71
2022/04/16 12:07:41;;;;;;;2.87;2.50;;;14.90;82.50;;;;;;5034277;28;20404;-68
2022/04/16 12:10:07;;;;;;;2.53;2.33;;;14.70;81.60;;;;;;5034274;28;20456;-69
2022/04/16 12:12:43;;;;;;;3.67;3.07;;;14.70;82.40;;;;;;5034352;28;20465;-69
2022/04/16 12:15:09;;;;;;;2.00;1.90;;;14.80;82.50;;;;;;5033907;28;20443;-71
2022/04/16 12:17:40;;;;;;;2.47;1.93;;;14.90;82.40;;;;;;5032825;28;21002;-71
2022/04/16 12:20:11;;;;;;;3.00;2.33;;;15.10;82.00;;;;;;5033880;28;20610;-70
2022/04/16 12:22:56;;;;;;;2.23;2.10;;;15.00;79.30;;;;;;5034024;28;20799;-70
2022/04/16 12:25:24;;;;;;;2.13;1.97;;;14.80;79.10;;;;;;5033174;28;20478;-71
2022/04/16 12:27:54;;;;;;;2.40;1.70;;;14.60;79.90;;;;;;5033966;28;20400;-70
2022/04/16 12:30:25;;;;;;;1.87;1.57;;;14.50;79.40;;;;;;5032706;28;20541;-70
2022/04/16 12:33:04;;;;;;;2.63;2.40;;;14.60;80.10;;;;;;5034127;28;20415;-71
2022/04/16 12:35:34;;;;;;;2.17;2.00;;;14.60;80.00;;;;;;5034037;28;20516;-68
2022/04/16 12:38:01;;;;;;;2.30;2.10;;;14.70;79.90;;;;;;5033908;28;20458;-69
2022/04/16 12:40:28;;;;;;;1.60;1.50;;;14.70;79.70;;;;;;5033576;28;20513;-70
2022/04/16 12:42:56;;;;;;;1.73;1.63;;;14.80;79.20;;;;;;5033469;28;20431;-70
2022/04/16 12:45:23;;;;;;;1.73;1.63;;;14.80;81.30;;;;;;5033424;28;20438;-70
2022/04/16 12:47:49;;;;;;;2.33;1.80;;;14.90;79.20;;;;;;5033700;28;20416;-68
2022/04/16 12:50:15;;;;;;;2.50;2.30;;;14.90;79.20;;;;;;5032487;28;20849;-68
2022/04/16 12:52:41;;;;;;;2.90;2.10;;;14.90;79.40;;;;;;5033608;28;20404;-70
2022/04/16 12:55:08;;;;;;;2.90;2.07;;;14.90;77.90;;;;;;5032733;28;20194;-69
2022/04/16 12:57:33;;;;;;;3.80;2.50;;;15.00;77.50;;;;;;5033552;28;20531;-69
2022/04/16 12:59:59;;;;;;;2.00;1.80;;;15.00;77.80;;;;;;5033738;28;20428;-70
2022/04/16 13:02:25;;;;;;;1.57;1.47;;;14.90;77.70;;;;;;5033468;28;20517;-69
2022/04/16 13:04:51;;;;;;;2.40;2.27;;;14.80;79.80;;;;;;5032655;28;20210;-69
2022/04/16 13:07:17;;;;;;;1.87;1.77;;;14.70;80.70;;;;;;5033420;28;20491;-69
2022/04/16 13:09:43;;;;;;;3.30;2.37;;;14.60;81.50;;;;;;5033338;28;20522;-69
2022/04/16 13:12:08;;;;;;;3.57;2.70;;;14.50;80.80;;;;;;5033344;28;20486;-71
2022/04/16 13:14:34;;;;;;;2.20;2.00;;;14.40;80.90;;;;;;5033006;28;20583;-71